Time;durP1;ratioP1;P1;durP2;ratioP2;P2;SDS_P1;SDS_P2;PMS_P1;PMS_P2;Temp;Humidity;BMP_temperature;BMP_pressure;BME280_temperature;BME280_humidity;BME280_pressure;Samples;Min_cycle;Max_cycle;Signal;HPM_P1;HPM_P2
2022/06/24 00:01:01;;;;;;;22.23;14.57;;;25.60;58.40;;;;;;5064397;28;20215;-96
2022/06/24 00:04:08;;;;;;;;;;;;;;;;;;;;;
2022/06/24 00:09:54;;;;;;;22.80;14.80;;;25.60;59.10;;;;;;5005878;28;20209;-96
2022/06/24 00:16:29;;;;;;;20.40;15.90;;;25.60;58.90;;;;;;5069376;22;20320;-96
2022/06/24 00:22:20;;;;;;;19.40;14.00;;;25.60;58.70;;;;;;5065251;28;20219;-95
2022/06/24 00:24:54;;;;;;;23.13;15.33;;;25.60;58.30;;;;;;5059396;28;20644;-95
2022/06/24 00:27:25;;;;;;;18.27;13.53;;;25.60;58.70;;;;;;5048947;28;20204;-96
2022/06/24 00:29:56;;;;;;;20.50;13.00;;;25.60;58.90;;;;;;5047734;28;20225;-96
2022/06/24 00:32:34;;;;;;;21.23;14.23;;;25.60;58.40;;;;;;5045360;28;20199;-96
2022/06/24 00:35:09;;;;;;;14.93;12.13;;;25.60;58.70;;;;;;5043498;28;20223;-95
2022/06/24 00:38:20;;;;;;;17.13;13.77;;;25.60;58.70;;;;;;5042375;28;20298;-96
2022/06/24 00:40:50;;;;;;;19.67;13.63;;;25.50;58.80;;;;;;5050936;28;20208;-95
2022/06/24 00:43:35;;;;;;;20.47;14.60;;;25.50;58.60;;;;;;5058653;28;20292;-96
2022/06/24 00:49:44;;;;;;;20.23;13.43;;;25.50;59.30;;;;;;5058143;22;20274;-96
2022/06/24 00:52:19;;;;;;;22.07;17.13;;;25.50;59.20;;;;;;5071428;28;20538;-95
2022/06/24 00:54:47;;;;;;;17.53;13.37;;;25.40;59.20;;;;;;5068115;28;20195;-95
2022/06/24 00:57:21;;;;;;;18.93;12.97;;;25.40;59.20;;;;;;5067120;28;20231;-96
2022/06/24 00:59:58;;;;;;;22.23;14.67;;;25.40;59.30;;;;;;5065663;28;20224;-96
2022/06/24 01:02:36;;;;;;;20.87;14.77;;;25.40;59.30;;;;;;5054514;28;22193;-96
2022/06/24 01:05:44;;;;;;;20.53;14.00;;;25.40;59.40;;;;;;5072408;28;20247;-94
2022/06/24 01:13:43;;;;;;;23.07;15.07;;;25.40;59.40;;;;;;5108889;22;20769;-96
2022/06/24 01:19:43;;;;;;;18.90;14.43;;;25.30;60.00;;;;;;5040846;28;20211;-95
2022/06/24 01:22:20;;;;;;;21.53;14.73;;;25.30;59.80;;;;;;5049938;28;20189;-95
2022/06/24 01:31:40;;;;;;;19.00;14.73;;;25.20;59.80;;;;;;5030830;28;20238;-96
2022/06/24 01:34:19;;;;;;;24.90;16.23;;;25.20;59.60;;;;;;5048185;28;20200;-96
2022/06/24 01:40:26;;;;;;;18.00;14.27;;;25.20;60.30;;;;;;4997903;22;20427;-95
2022/06/24 01:42:56;;;;;;;21.23;15.30;;;25.20;59.90;;;;;;5042295;28;20201;-96
2022/06/24 01:45:39;;;;;;;18.60;14.80;;;25.10;59.80;;;;;;5045988;28;20215;-94
2022/06/24 01:48:09;;;;;;;19.30;14.63;;;25.10;60.10;;;;;;5045436;28;20204;-96
2022/06/24 01:53:51;;;;;;;18.90;14.07;;;25.10;60.60;;;;;;5048337;28;20208;-95
2022/06/24 01:56:21;;;;;;;18.07;14.37;;;25.00;60.20;;;;;;5048140;28;20191;-96
2022/06/24 02:01:55;;;;;;;19.40;16.50;;;25.00;60.60;;;;;;5140627;22;20274;-96
2022/06/24 02:04:22;;;;;;;21.37;17.10;;;25.00;61.30;;;;;;5042983;28;20204;-95
2022/06/24 02:07:34;;;;;;;29.30;20.83;;;24.90;60.70;;;;;;5045779;28;20219;-95
2022/06/24 02:13:34;;;;;;;25.47;19.70;;;24.90;60.80;;;;;;5045809;28;20208;-95
2022/06/24 02:16:05;;;;;;;30.67;22.27;;;24.90;61.60;;;;;;5039936;28;20230;-95
2022/06/24 02:19:23;;;;;;;27.87;22.30;;;24.80;61.20;;;;;;5045905;28;20259;-95
2022/06/24 02:21:57;;;;;;;28.27;24.53;;;24.80;61.40;;;;;;5025090;28;20206;-95
2022/06/24 02:24:27;;;;;;;27.87;23.87;;;24.80;61.10;;;;;;5045127;28;20299;-94
2022/06/24 02:27:57;;;;;;;35.23;26.27;;;24.80;60.90;;;;;;5040969;28;20277;-94
2022/06/24 02:30:25;;;;;;;34.77;27.03;;;24.80;61.40;;;;;;4966755;28;20209;-94
2022/06/24 02:32:56;;;;;;;29.23;25.40;;;24.70;60.70;;;;;;5002309;28;20214;-95
2022/06/24 02:42:20;;;;;;;36.53;26.77;;;24.70;62.10;;;;;;4972250;28;20728;-95
2022/06/24 02:44:49;;;;;;;29.50;25.63;;;24.60;61.30;;;;;;5009724;28;20615;-95
2022/06/24 02:50:48;;;;;;;32.17;25.67;;;24.60;62.70;;;;;;5006511;28;20224;-95
2022/06/24 02:53:50;;;;;;;32.17;26.10;;;24.60;62.30;;;;;;5008884;28;20198;-94
2022/06/24 02:56:17;;;;;;;30.57;24.83;;;24.60;62.90;;;;;;5005435;28;20239;-95
2022/06/24 02:58:46;;;;;;;31.97;26.27;;;24.60;62.00;;;;;;5028986;28;20733;-95
2022/06/24 03:01:13;;;;;;;37.87;28.63;;;24.60;62.20;;;;;;5032920;28;20215;-95
2022/06/24 03:03:41;;;;;;;34.70;27.10;;;24.60;62.30;;;;;;5026209;28;20244;-96
2022/06/24 03:06:11;;;;;;;30.33;25.77;;;24.60;62.30;;;;;;5020210;28;20208;-95
2022/06/24 03:08:40;;;;;;;29.20;26.00;;;24.50;62.40;;;;;;5027330;28;20724;-95
2022/06/24 03:11:08;;;;;;;34.87;27.47;;;24.60;62.50;;;;;;5012956;28;20219;-95
2022/06/24 03:14:22;;;;;;;37.80;27.77;;;24.60;62.40;;;;;;5031778;28;20214;-95
2022/06/24 03:18:09;;;;;;;39.47;30.60;;;24.50;63.20;;;;;;5030667;28;20210;-94
2022/06/24 03:20:38;;;;;;;36.20;29.10;;;24.60;63.00;;;;;;5029433;28;21033;-94
2022/06/24 03:26:40;;;;;;;39.70;28.93;;;24.60;63.20;;;;;;5015722;28;20200;-95
2022/06/24 03:29:10;;;;;;;39.50;31.00;;;24.50;62.40;;;;;;5032517;28;20208;-95
2022/06/24 03:31:37;;;;;;;34.60;28.70;;;24.50;62.80;;;;;;5031019;28;20211;-96
2022/06/24 03:34:27;;;;;;;;;;;;;;;;;;;;;
2022/06/24 03:36:54;;;;;;;41.10;31.20;;;24.50;62.90;;;;;;5031234;28;20211;-96
2022/06/24 03:39:21;;;;;;;37.47;30.27;;;24.50;62.30;;;;;;5031586;28;20233;-95
2022/06/24 03:41:54;;;;;;;34.40;29.93;;;24.50;62.50;;;;;;5031704;28;20207;-94
2022/06/24 03:44:23;;;;;;;35.33;29.70;;;24.50;62.70;;;;;;5033734;28;20226;-95
2022/06/24 03:47:10;;;;;;;35.20;28.87;;;24.50;62.70;;;;;;5031590;28;20532;-94
2022/06/24 03:49:39;;;;;;;40.83;31.43;;;24.40;62.50;;;;;;5031820;28;20222;-92
2022/06/24 03:52:07;;;;;;;38.63;30.23;;;24.40;62.50;;;;;;5027229;28;20225;-94
2022/06/24 03:54:35;;;;;;;40.10;31.60;;;24.50;62.70;;;;;;5028090;28;20218;-92
2022/06/24 03:57:10;;;;;;;39.77;32.13;;;24.40;62.80;;;;;;5029279;28;20832;-95
2022/06/24 03:59:42;;;;;;;36.63;29.67;;;24.40;63.10;;;;;;5018568;28;20656;-95
2022/06/24 04:02:17;;;;;;;39.20;29.40;;;24.40;62.90;;;;;;5027629;28;20219;-94
2022/06/24 04:04:44;;;;;;;36.07;29.77;;;24.40;63.00;;;;;;5020245;28;20553;-94
2022/06/24 04:07:20;;;;;;;44.93;32.00;;;24.40;63.10;;;;;;5029258;28;20199;-95
2022/06/24 04:12:49;;;;;;;37.10;29.67;;;24.40;63.60;;;;;;5035207;28;20212;-95
2022/06/24 04:15:17;;;;;;;40.60;29.53;;;24.30;63.40;;;;;;5036747;28;20269;-95
2022/06/24 04:18:19;;;;;;;39.87;30.67;;;24.30;63.40;;;;;;5025259;28;20196;-95
2022/06/24 04:20:48;;;;;;;36.47;29.70;;;24.30;64.60;;;;;;5032256;28;20218;-94
2022/06/24 04:26:15;;;;;;;36.77;29.93;;;24.30;63.90;;;;;;4989227;28;20202;-95
2022/06/24 04:32:59;;;;;;;35.23;28.13;;;24.30;64.90;;;;;;5033720;28;20222;-95
2022/06/24 04:35:29;;;;;;;37.53;28.00;;;24.30;64.30;;;;;;5029791;28;20603;-95
2022/06/24 04:37:56;;;;;;;37.97;29.10;;;24.30;64.10;;;;;;5049143;28;20274;-95
2022/06/24 04:40:35;;;;;;;39.80;29.17;;;24.30;64.00;;;;;;5033782;28;20207;-93
2022/06/24 04:43:04;;;;;;;34.10;27.90;;;24.30;64.20;;;;;;5038247;28;20222;-94
2022/06/24 04:45:32;;;;;;;31.70;27.07;;;24.30;64.60;;;;;;5036550;28;20207;-95
2022/06/24 04:48:00;;;;;;;38.63;31.83;;;24.30;64.50;;;;;;5030759;28;20297;-95
2022/06/24 04:53:13;;;;;;;33.53;28.97;;;24.30;64.70;;;;;;5037010;28;20204;-94
2022/06/24 04:55:43;;;;;;;36.53;30.07;;;24.20;64.70;;;;;;5033252;28;20201;-95
2022/06/24 04:58:16;;;;;;;39.33;30.17;;;24.30;65.10;;;;;;5051113;28;20226;-95
2022/06/24 05:01:07;;;;;;;47.67;34.07;;;24.20;65.10;;;;;;5051553;28;20299;-94
2022/06/24 05:03:34;;;;;;;40.67;31.47;;;24.20;65.20;;;;;;5018936;28;20215;-94
2022/06/24 05:06:04;;;;;;;37.17;31.17;;;24.20;65.00;;;;;;5033297;28;20200;-94
2022/06/24 05:08:31;;;;;;;41.10;33.53;;;24.20;65.20;;;;;;5033604;28;20260;-94
2022/06/24 05:10:58;;;;;;;41.87;32.60;;;24.10;65.00;;;;;;5033850;28;20219;-94
2022/06/24 05:13:25;;;;;;;39.37;32.00;;;24.10;65.20;;;;;;5031681;28;20196;-94
2022/06/24 05:15:53;;;;;;;40.40;32.57;;;24.10;65.20;;;;;;5033610;28;20207;-93
2022/06/24 05:18:37;;;;;;;38.73;30.87;;;24.10;65.30;;;;;;5032633;28;20216;-93
2022/06/24 05:21:06;;;;;;;44.37;31.97;;;24.10;66.00;;;;;;5031814;28;20215;-94
2022/06/24 05:23:33;;;;;;;37.57;29.87;;;24.10;65.60;;;;;;5012742;28;20215;-93
2022/06/24 05:26:00;;;;;;;40.60;31.37;;;24.10;65.50;;;;;;5011530;28;20203;-95
2022/06/24 05:28:40;;;;;;;38.27;30.13;;;24.10;65.60;;;;;;5020825;28;20211;-94
2022/06/24 05:34:03;;;;;;;31.40;26.50;;;24.10;65.70;;;;;;5005877;28;20343;-95
2022/06/24 05:36:35;;;;;;;30.83;26.17;;;24.10;65.40;;;;;;5013534;28;20197;-96
2022/06/24 05:39:11;;;;;;;30.33;24.20;;;24.10;65.70;;;;;;5013792;28;20754;-94
2022/06/24 05:41:40;;;;;;;29.57;26.30;;;24.10;65.70;;;;;;5022370;28;20212;-92
2022/06/24 05:44:28;;;;;;;30.50;24.90;;;24.10;65.40;;;;;;5032001;28;20254;-94
2022/06/24 05:46:57;;;;;;;31.93;25.93;;;24.10;65.80;;;;;;5019845;28;20750;-93
2022/06/24 05:49:28;;;;;;;37.40;26.87;;;24.10;65.40;;;;;;5018492;28;20204;-92
2022/06/24 05:55:02;;;;;;;27.73;24.27;;;24.20;65.40;;;;;;5019052;28;20235;-94
2022/06/24 05:55:04;;;;;;;37.53;25.70;;;24.20;65.20;;;;;;5013722;28;20266;-94
2022/06/24 05:57:35;;;;;;;37.10;28.00;;;24.20;65.20;;;;;;5024237;28;20250;-94
2022/06/24 06:00:04;;;;;;;33.90;26.27;;;24.10;65.40;;;;;;5051723;28;20230;-96
2022/06/24 06:02:59;;;;;;;35.13;26.40;;;24.10;65.60;;;;;;5038488;28;20661;-93
2022/06/24 06:05:29;;;;;;;30.43;24.23;;;24.20;66.30;;;;;;5032695;28;20217;-94
2022/06/24 06:08:06;;;;;;;33.77;24.33;;;24.20;65.80;;;;;;5033654;28;20723;-93
2022/06/24 06:10:36;;;;;;;26.37;20.63;;;24.20;66.10;;;;;;5035171;28;20833;-95
2022/06/24 06:13:05;;;;;;;26.40;20.67;;;24.20;65.70;;;;;;5032838;28;20215;-93
2022/06/24 06:15:38;;;;;;;33.07;22.07;;;24.20;65.70;;;;;;5013613;28;20300;-93
2022/06/24 06:18:05;;;;;;;26.50;20.03;;;24.30;65.60;;;;;;5020554;28;20213;-92
2022/06/24 06:20:34;;;;;;;23.43;18.60;;;24.30;65.50;;;;;;5021456;28;20232;-95
2022/06/24 06:26:04;;;;;;;23.43;16.43;;;24.40;65.20;;;;;;5021221;28;20218;-93
2022/06/24 06:28:31;;;;;;;23.93;16.37;;;24.40;64.90;;;;;;5034052;28;20231;-93
2022/06/24 06:30:58;;;;;;;21.50;14.27;;;24.50;65.00;;;;;;5030713;28;20250;-92
2022/06/24 06:33:26;;;;;;;20.17;14.20;;;24.50;64.70;;;;;;5031103;28;20591;-93
2022/06/24 06:35:53;;;;;;;19.83;13.47;;;24.60;64.70;;;;;;5032434;28;20208;-92
2022/06/24 06:38:24;;;;;;;19.57;13.67;;;24.70;65.00;;;;;;5030647;28;20382;-92
2022/06/24 06:40:51;;;;;;;19.67;12.87;;;24.70;65.00;;;;;;5030088;28;20638;-94
2022/06/24 06:43:18;;;;;;;15.70;10.43;;;24.80;64.50;;;;;;5029591;28;20263;-93
2022/06/24 06:45:45;;;;;;;15.50;10.03;;;24.80;64.00;;;;;;5029795;28;20208;-92
2022/06/24 06:48:19;;;;;;;13.63;9.17;;;24.80;63.60;;;;;;5030391;28;20550;-94
2022/06/24 06:50:47;;;;;;;16.93;10.63;;;24.90;63.10;;;;;;5030501;28;20224;-93
2022/06/24 06:53:37;;;;;;;17.60;10.07;;;24.90;62.90;;;;;;5021515;28;20224;-94
2022/06/24 06:56:04;;;;;;;15.90;9.97;;;25.00;62.70;;;;;;5028620;28;20193;-94
2022/06/24 06:58:32;;;;;;;12.67;9.13;;;25.00;62.90;;;;;;5029866;28;20228;-94
2022/06/24 07:00:59;;;;;;;16.63;10.13;;;25.10;62.90;;;;;;5030276;28;20656;-94
2022/06/24 07:03:29;;;;;;;13.20;9.30;;;25.10;62.80;;;;;;5030608;28;20299;-94
2022/06/24 07:05:58;;;;;;;15.03;9.50;;;25.10;62.90;;;;;;5029788;28;20201;-93
2022/06/24 07:08:26;;;;;;;15.80;8.80;;;25.10;62.50;;;;;;5028561;28;20216;-95
2022/06/24 07:10:53;;;;;;;14.60;9.30;;;25.10;62.10;;;;;;5026634;28;20216;-92
2022/06/24 07:13:42;;;;;;;13.70;9.03;;;25.20;62.10;;;;;;5023087;28;20200;-94
2022/06/24 07:16:24;;;;;;;16.57;9.83;;;25.20;61.90;;;;;;5030117;28;20209;-94
2022/06/24 07:21:34;;;;;;;16.57;10.10;;;25.30;62.00;;;;;;5002453;28;20205;-93
2022/06/24 07:24:04;;;;;;;12.20;8.20;;;25.30;61.90;;;;;;5021647;28;20239;-95
2022/06/24 07:26:31;;;;;;;13.90;8.53;;;25.30;61.90;;;;;;5030291;28;20250;-92
2022/06/24 07:29:01;;;;;;;16.37;9.67;;;25.40;62.10;;;;;;5029304;28;20235;-93
2022/06/24 07:31:40;;;;;;;14.47;8.30;;;25.40;61.80;;;;;;5034440;28;20201;-96
2022/06/24 07:34:09;;;;;;;14.47;9.27;;;25.50;61.70;;;;;;5030648;28;20209;-95
2022/06/24 07:36:36;;;;;;;13.27;9.60;;;25.50;61.80;;;;;;5020379;28;20205;-94
2022/06/24 07:39:05;;;;;;;17.73;10.53;;;25.50;61.80;;;;;;5035236;28;20181;-95
2022/06/24 07:41:32;;;;;;;16.47;10.63;;;25.60;61.70;;;;;;5049962;28;20201;-94
2022/06/24 07:44:03;;;;;;;14.30;9.43;;;25.70;61.60;;;;;;5047545;28;20201;-95
2022/06/24 07:46:30;;;;;;;18.03;9.53;;;25.80;61.30;;;;;;5033490;28;20211;-93
2022/06/24 07:48:59;;;;;;;14.63;8.43;;;25.80;61.30;;;;;;5031505;28;20240;-95
2022/06/24 07:51:30;;;;;;;11.43;7.67;;;25.80;61.00;;;;;;5024878;28;20224;-94
2022/06/24 07:53:58;;;;;;;12.23;8.37;;;25.80;60.90;;;;;;5023533;28;20296;-94
2022/06/24 07:59:12;;;;;;;10.43;7.73;;;25.80;60.10;;;;;;5030457;28;20230;-96
2022/06/24 08:01:39;;;;;;;16.60;10.53;;;25.80;60.00;;;;;;5042162;28;20247;-91
2022/06/24 08:04:11;;;;;;;14.33;8.20;;;25.80;59.60;;;;;;5040343;28;20211;-93
2022/06/24 08:06:42;;;;;;;13.37;8.13;;;25.80;59.60;;;;;;5035384;28;20212;-94
2022/06/24 08:09:18;;;;;;;13.73;7.07;;;25.80;59.10;;;;;;5025950;28;20201;-96
2022/06/24 08:11:48;;;;;;;15.43;8.07;;;25.70;58.60;;;;;;5031984;28;20742;-92
2022/06/24 08:14:18;;;;;;;15.83;8.03;;;25.70;58.70;;;;;;5022122;28;20209;-92
2022/06/24 08:16:47;;;;;;;8.20;5.83;;;25.60;58.80;;;;;;5013181;28;20253;-94
2022/06/24 08:19:14;;;;;;;14.37;7.10;;;25.50;58.70;;;;;;5031222;28;20208;-95
2022/06/24 08:21:43;;;;;;;10.60;6.23;;;25.50;58.60;;;;;;5029949;28;20282;-93
2022/06/24 08:24:12;;;;;;;15.23;6.10;;;25.40;58.50;;;;;;5031289;28;20235;-95
2022/06/24 08:26:39;;;;;;;11.47;6.53;;;25.30;58.40;;;;;;5021849;28;20205;-95
2022/06/24 08:29:11;;;;;;;9.67;5.87;;;25.30;58.60;;;;;;5027814;28;20205;-94
2022/06/24 08:31:38;;;;;;;11.43;6.50;;;25.20;58.60;;;;;;5033425;28;20205;-95
2022/06/24 08:34:05;;;;;;;12.93;7.23;;;25.10;58.60;;;;;;5031586;28;20653;-95
2022/06/24 08:36:33;;;;;;;13.60;7.00;;;25.10;58.70;;;;;;5033768;28;20280;-93
2022/06/24 08:39:00;;;;;;;12.40;6.90;;;25.00;58.90;;;;;;5033234;28;20672;-91
2022/06/24 08:41:28;;;;;;;16.33;8.33;;;24.90;59.10;;;;;;5028821;28;20224;-92
2022/06/24 08:43:58;;;;;;;15.40;8.20;;;24.90;59.70;;;;;;5026987;28;20215;-93
2022/06/24 08:46:28;;;;;;;13.73;7.73;;;24.80;60.40;;;;;;5026909;28;20208;-92
2022/06/24 08:48:59;;;;;;;11.60;7.40;;;24.70;59.90;;;;;;5030750;28;20208;-96
2022/06/24 08:51:31;;;;;;;12.77;7.37;;;24.60;60.20;;;;;;5031453;28;20197;-96
2022/06/24 08:54:05;;;;;;;12.23;7.73;;;24.50;60.50;;;;;;5030268;28;20201;-96
2022/06/24 08:56:35;;;;;;;20.73;10.33;;;24.50;60.40;;;;;;5028290;28;20240;-95
2022/06/24 08:59:05;;;;;;;15.17;7.90;;;24.40;60.60;;;;;;5020993;28;20298;-96
2022/06/24 09:01:39;;;;;;;13.60;7.60;;;24.30;61.50;;;;;;5011975;28;20286;-96
2022/06/24 09:04:16;;;;;;;9.60;6.40;;;24.20;62.60;;;;;;5011993;28;20209;-96
2022/06/24 09:06:45;;;;;;;18.13;8.87;;;24.20;61.90;;;;;;5017965;28;20203;-95
2022/06/24 09:09:22;;;;;;;17.60;8.60;;;24.10;62.10;;;;;;5021640;28;20218;-93
2022/06/24 09:11:55;;;;;;;14.40;8.07;;;24.10;62.20;;;;;;5011391;28;20201;-96
2022/06/24 09:14:22;;;;;;;12.00;8.37;;;24.00;62.40;;;;;;5021289;28;20222;-96
2022/06/24 09:16:53;;;;;;;30.93;22.20;;;24.00;62.90;;;;;;5020643;28;20212;-94
2022/06/24 09:19:22;;;;;;;22.13;14.80;;;23.90;64.20;;;;;;5032317;28;20865;-95
2022/06/24 09:21:49;;;;;;;21.00;11.30;;;23.90;64.20;;;;;;5032077;28;20211;-94
2022/06/24 09:24:19;;;;;;;17.50;9.63;;;23.80;64.30;;;;;;5032369;28;20209;-95
2022/06/24 09:26:46;;;;;;;20.60;10.87;;;23.80;65.20;;;;;;5030272;28;20362;-95
2022/06/24 09:29:16;;;;;;;13.77;7.97;;;23.80;65.00;;;;;;5028330;28;20207;-95
2022/06/24 09:31:43;;;;;;;17.17;8.73;;;23.70;65.90;;;;;;5031528;28;20236;-95
2022/06/24 09:34:13;;;;;;;15.50;8.47;;;23.70;65.90;;;;;;5030449;28;20213;-95
2022/06/24 09:36:42;;;;;;;21.87;9.03;;;23.60;66.70;;;;;;5031320;28;20239;-93
2022/06/24 09:39:11;;;;;;;16.40;8.80;;;23.60;66.80;;;;;;5027796;28;20212;-95
2022/06/24 09:41:50;;;;;;;14.47;8.33;;;23.60;66.80;;;;;;5030155;28;20323;-93
2022/06/24 09:44:19;;;;;;;19.37;10.13;;;23.60;67.50;;;;;;5010361;28;20206;-94
2022/06/24 09:46:48;;;;;;;16.87;9.10;;;23.50;66.50;;;;;;5029741;28;20204;-91
2022/06/24 09:49:19;;;;;;;14.07;7.63;;;23.50;66.70;;;;;;5028541;28;20209;-92
2022/06/24 09:51:46;;;;;;;14.10;8.00;;;23.40;67.10;;;;;;5029043;28;20213;-93
2022/06/24 09:54:15;;;;;;;11.83;7.27;;;23.40;67.20;;;;;;5030066;28;20205;-92
2022/06/24 09:56:45;;;;;;;13.97;7.20;;;23.30;67.70;;;;;;5030818;28;20307;-91
2022/06/24 10:02:05;;;;;;;12.70;7.67;;;23.30;70.90;;;;;;5029215;28;20582;-93
2022/06/24 10:04:40;;;;;;;12.27;6.97;;;23.20;71.10;;;;;;5030943;28;20211;-92
2022/06/24 10:07:07;;;;;;;18.40;8.60;;;23.30;71.60;;;;;;5010505;28;20284;-93
2022/06/24 10:09:38;;;;;;;14.20;7.67;;;23.30;71.50;;;;;;5028560;28;20208;-94
2022/06/24 10:12:06;;;;;;;13.47;6.93;;;23.30;72.20;;;;;;5030007;28;20223;-93
2022/06/24 10:14:35;;;;;;;10.30;6.03;;;23.30;72.20;;;;;;5030171;28;20299;-94
2022/06/24 10:17:03;;;;;;;19.37;11.20;;;23.50;72.60;;;;;;5029210;28;20263;-95
2022/06/24 10:19:31;;;;;;;13.00;7.20;;;23.60;74.00;;;;;;5025449;28;20208;-94
2022/06/24 10:22:00;;;;;;;11.90;5.27;;;23.70;75.00;;;;;;5030248;28;20294;-93
2022/06/24 10:24:40;;;;;;;9.40;5.23;;;23.90;75.40;;;;;;5029664;28;20544;-95
2022/06/24 10:27:07;;;;;;;14.07;6.47;;;24.00;73.80;;;;;;5031853;28;20212;-93
2022/06/24 10:29:36;;;;;;;9.17;4.80;;;24.20;73.20;;;;;;5031802;28;20206;-95
2022/06/24 10:32:07;;;;;;;8.80;5.07;;;24.40;73.30;;;;;;5013268;28;20210;-95
2022/06/24 10:34:44;;;;;;;11.93;5.77;;;24.60;73.10;;;;;;5012769;28;20212;-95
2022/06/24 10:37:34;;;;;;;12.90;6.00;;;24.80;73.10;;;;;;5029164;28;20231;-94
2022/06/24 10:40:01;;;;;;;8.10;4.10;;;24.90;73.20;;;;;;5029813;28;20266;-93
2022/06/24 10:42:30;;;;;;;9.60;5.10;;;25.20;72.30;;;;;;5031639;28;20208;-93
2022/06/24 10:45:02;;;;;;;8.23;4.63;;;25.30;71.40;;;;;;5030544;28;20205;-95
2022/06/24 10:47:44;;;;;;;6.70;3.70;;;25.40;70.80;;;;;;5016749;28;20328;-92
2022/06/24 10:50:24;;;;;;;5.23;3.73;;;25.50;70.60;;;;;;5022956;28;20649;-93
2022/06/24 10:53:03;;;;;;;11.47;5.10;;;25.60;69.60;;;;;;5027100;28;20204;-92
2022/06/24 10:55:39;;;;;;;8.93;4.37;;;25.70;69.70;;;;;;5030082;28;20227;-93
2022/06/24 10:58:09;;;;;;;10.93;5.57;;;25.80;69.70;;;;;;5030415;28;20200;-93
2022/06/24 11:00:48;;;;;;;10.23;5.27;;;25.90;69.00;;;;;;5028384;28;20217;-94
2022/06/24 11:03:20;;;;;;;9.20;4.40;;;25.90;69.90;;;;;;5011192;28;21061;-92
2022/06/24 11:05:48;;;;;;;7.10;4.40;;;26.00;69.80;;;;;;5012151;28;20781;-93
2022/06/24 11:08:19;;;;;;;12.43;6.03;;;26.00;68.60;;;;;;5045337;28;20200;-93
2022/06/24 11:10:48;;;;;;;10.47;4.90;;;26.20;68.60;;;;;;5047020;28;20205;-93
2022/06/24 11:13:18;;;;;;;7.03;3.87;;;26.20;67.50;;;;;;5039586;28;20664;-92
2022/06/24 11:15:49;;;;;;;6.97;3.63;;;26.20;66.80;;;;;;5036484;28;20251;-93
2022/06/24 11:18:18;;;;;;;11.33;5.27;;;26.30;67.10;;;;;;5030097;28;20204;-93
2022/06/24 11:20:48;;;;;;;10.07;4.07;;;26.30;65.50;;;;;;5031036;28;20209;-93
2022/06/24 11:23:20;;;;;;;7.40;3.63;;;26.40;64.60;;;;;;5030855;28;20185;-92
2022/06/24 11:25:49;;;;;;;5.67;2.93;;;26.50;65.40;;;;;;5030181;28;20549;-93
2022/06/24 11:28:21;;;;;;;7.47;3.63;;;26.50;65.40;;;;;;5030052;28;20200;-94
2022/06/24 11:30:49;;;;;;;7.53;3.47;;;26.50;65.70;;;;;;5040911;28;20708;-94
2022/06/24 11:33:19;;;;;;;7.70;3.50;;;26.60;64.80;;;;;;5046301;28;20230;-94
2022/06/24 11:35:48;;;;;;;6.27;3.07;;;26.70;64.80;;;;;;5034788;28;20205;-93
2022/06/24 11:38:22;;;;;;;4.80;2.37;;;26.80;64.40;;;;;;5021042;28;20216;-94
2022/06/24 11:40:50;;;;;;;7.10;2.87;;;26.90;64.00;;;;;;5035422;28;20224;-92
2022/06/24 11:43:18;;;;;;;5.43;2.83;;;27.00;64.10;;;;;;5029861;28;20209;-90
2022/06/24 11:45:48;;;;;;;5.90;2.57;;;27.10;63.40;;;;;;5030718;28;20227;-93
2022/06/24 11:48:21;;;;;;;7.07;3.27;;;27.20;62.90;;;;;;5026862;28;21089;-92
2022/06/24 11:50:54;;;;;;;7.23;2.73;;;27.30;61.80;;;;;;5016792;28;20255;-92
2022/06/24 11:53:30;;;;;;;5.93;2.87;;;27.50;61.90;;;;;;5029423;28;20207;-93
2022/06/24 11:55:58;;;;;;;6.67;3.00;;;27.60;61.40;;;;;;5029606;28;20731;-92
2022/06/24 11:58:26;;;;;;;5.47;2.40;;;27.60;60.80;;;;;;5029946;28;20295;-93
2022/06/24 12:00:54;;;;;;;5.17;2.27;;;27.70;60.70;;;;;;5029164;28;20565;-92
2022/06/24 12:03:25;;;;;;;7.37;3.13;;;27.70;60.50;;;;;;5027317;28;20204;-92
2022/06/24 12:05:52;;;;;;;10.23;4.27;;;27.80;60.00;;;;;;5029165;28;20266;-92
2022/06/24 12:08:20;;;;;;;7.80;3.40;;;27.80;60.30;;;;;;5019747;28;20248;-91
2022/06/24 12:10:56;;;;;;;6.83;2.90;;;27.80;60.30;;;;;;5021013;28;20258;-91
2022/06/24 12:13:29;;;;;;;4.97;2.37;;;27.80;59.60;;;;;;5029033;28;20293;-91
2022/06/24 12:15:57;;;;;;;7.03;2.97;;;27.80;59.30;;;;;;5028683;28;20208;-94
2022/06/24 12:18:28;;;;;;;8.07;3.73;;;27.90;59.70;;;;;;5027718;28;20342;-92
2022/06/24 12:21:00;;;;;;;6.80;3.20;;;27.90;59.50;;;;;;5027121;28;20220;-92
2022/06/24 12:23:44;;;;;;;5.87;3.00;;;27.90;59.60;;;;;;5028486;28;20205;-92
2022/06/24 12:26:17;;;;;;;8.27;4.17;;;28.00;58.90;;;;;;5027697;28;20720;-91
2022/06/24 12:28:57;;;;;;;5.23;2.77;;;28.00;59.20;;;;;;5028495;28;20205;-93
2022/06/24 12:31:29;;;;;;;5.97;3.03;;;28.10;59.80;;;;;;5030932;28;20263;-92
2022/06/24 12:34:03;;;;;;;8.67;4.10;;;28.20;59.40;;;;;;5030428;28;20262;-93
2022/06/24 12:36:36;;;;;;;8.97;3.50;;;28.30;59.00;;;;;;5035046;28;20205;-93
2022/06/24 12:39:07;;;;;;;9.33;4.33;;;28.30;58.40;;;;;;5011237;28;20201;-94
2022/06/24 12:41:50;;;;;;;8.40;3.73;;;28.40;58.90;;;;;;5037183;28;20775;-93
2022/06/24 12:44:18;;;;;;;8.30;3.57;;;28.40;58.10;;;;;;5028992;28;20211;-93
2022/06/24 12:52:36;;;;;;;7.70;4.20;;;28.60;57.80;;;;;;5028107;28;20236;-92
2022/06/24 12:55:05;;;;;;;6.90;3.47;;;28.70;57.50;;;;;;5031297;28;20254;-91
2022/06/24 12:57:36;;;;;;;8.30;3.53;;;28.70;57.80;;;;;;5032087;28;20185;-93
2022/06/24 13:00:08;;;;;;;6.30;3.40;;;28.80;57.50;;;;;;5031644;28;20205;-94
2022/06/24 13:02:35;;;;;;;6.90;3.57;;;28.80;57.00;;;;;;5022270;28;20240;-93
2022/06/24 13:05:02;;;;;;;7.80;3.57;;;28.80;57.50;;;;;;5018294;28;20240;-94
2022/06/24 13:07:30;;;;;;;6.67;3.57;;;28.80;57.10;;;;;;5031041;28;20224;-93
2022/06/24 13:09:57;;;;;;;6.70;3.63;;;28.80;57.90;;;;;;5030709;28;20212;-92
2022/06/24 13:12:24;;;;;;;6.90;3.73;;;28.90;58.10;;;;;;5030698;28;20649;-92
2022/06/24 13:14:53;;;;;;;8.50;4.40;;;28.90;57.80;;;;;;5031116;28;20205;-93
2022/06/24 13:17:22;;;;;;;10.47;4.57;;;28.90;57.20;;;;;;5029807;28;20205;-93
2022/06/24 13:19:49;;;;;;;8.30;4.27;;;29.00;56.60;;;;;;5030115;28;20295;-92
2022/06/24 13:22:16;;;;;;;8.37;3.83;;;29.00;56.90;;;;;;5030071;28;20294;-92
2022/06/24 13:24:43;;;;;;;6.67;3.30;;;29.00;56.70;;;;;;5031616;28;20204;-92
2022/06/24 13:30:19;;;;;;;3.13;1.97;;;29.10;56.30;;;;;;5053719;28;20207;-91
2022/06/24 13:32:46;;;;;;;6.17;3.27;;;29.10;55.90;;;;;;5021869;28;20738;-92
2022/06/24 13:35:14;;;;;;;5.03;2.73;;;29.20;55.80;;;;;;5031300;28;20235;-94
2022/06/24 13:37:41;;;;;;;5.73;3.00;;;29.20;55.50;;;;;;5029835;28;20291;-93
2022/06/24 13:40:09;;;;;;;8.63;4.27;;;29.20;55.60;;;;;;5031191;28;20209;-93
2022/06/24 13:42:37;;;;;;;17.27;4.60;;;29.20;56.30;;;;;;5030384;28;20275;-92
2022/06/24 13:45:06;;;;;;;8.13;3.27;;;29.20;55.40;;;;;;5030731;28;20596;-93
2022/06/24 13:47:37;;;;;;;10.90;4.93;;;29.20;55.10;;;;;;5031235;28;20208;-94
2022/06/24 13:50:12;;;;;;;5.00;2.70;;;29.20;54.70;;;;;;5031346;28;20224;-91
2022/06/24 13:52:43;;;;;;;13.23;5.90;;;29.10;54.60;;;;;;5029966;28;20212;-93
2022/06/24 13:55:10;;;;;;;8.07;4.13;;;29.10;54.20;;;;;;5031040;28;20260;-93
2022/06/24 13:57:37;;;;;;;7.50;3.77;;;29.00;54.40;;;;;;5030166;28;20224;-93
2022/06/24 14:00:05;;;;;;;6.17;3.47;;;29.00;54.70;;;;;;5029483;28;20295;-94
2022/06/24 14:02:37;;;;;;;11.23;6.27;;;28.80;55.30;;;;;;5027500;28;20355;-93
2022/06/24 14:05:05;;;;;;;8.60;5.43;;;28.80;56.00;;;;;;5029396;28;20278;-92
2022/06/24 14:07:32;;;;;;;10.23;5.63;;;28.70;56.70;;;;;;5029828;28;20250;-95
2022/06/24 14:10:00;;;;;;;8.53;4.90;;;28.70;58.00;;;;;;5028421;28;20222;-94
2022/06/24 14:12:28;;;;;;;7.50;3.93;;;28.50;58.20;;;;;;5029571;28;20292;-93
2022/06/24 14:14:56;;;;;;;5.53;3.90;;;28.40;58.60;;;;;;5031316;28;20209;-94
2022/06/24 14:17:24;;;;;;;6.77;4.10;;;28.40;60.00;;;;;;5029968;28;20281;-93
2022/06/24 14:19:53;;;;;;;7.93;5.93;;;28.30;60.50;;;;;;5032053;28;20602;-93
2022/06/24 14:22:20;;;;;;;9.07;5.77;;;28.20;62.20;;;;;;5031136;28;20292;-93
2022/06/24 14:24:48;;;;;;;9.40;6.00;;;28.20;63.10;;;;;;5030591;28;20227;-94
2022/06/24 14:27:15;;;;;;;9.27;6.07;;;28.20;62.60;;;;;;5028816;28;20247;-94
2022/06/24 14:29:45;;;;;;;9.37;5.90;;;28.10;63.50;;;;;;5030839;28;20205;-94
2022/06/24 14:32:13;;;;;;;10.90;6.47;;;28.10;63.70;;;;;;5014824;28;20205;-93
2022/06/24 14:34:40;;;;;;;10.53;6.53;;;28.10;63.30;;;;;;5052596;28;20219;-93
2022/06/24 14:42:40;;;;;;;9.70;6.27;;;28.20;63.00;;;;;;5035786;28;20220;-92